sensor_id;sensor_type;location;lat;lon;timestamp;P1;durP1;ratioP1;P2;durP2;ratioP2
66609;SDS011;53468;48.276;14.416;2022-09-09T00:03:08;5.05;;;2.80;;
66609;SDS011;53468;48.276;14.416;2022-09-09T00:08:50;5.72;;;2.95;;
66609;SDS011;53468;48.276;14.416;2022-09-09T00:14:33;5.07;;;2.55;;
66609;SDS011;53468;48.276;14.416;2022-09-09T00:20:12;4.85;;;2.88;;
66609;SDS011;53468;48.276;14.416;2022-09-09T00:25:50;5.72;;;3.05;;
66609;SDS011;53468;48.276;14.416;2022-09-09T00:31:30;3.55;;;2.20;;
66609;SDS011;53468;48.276;14.416;2022-09-09T00:37:03;6.93;;;2.67;;
66609;SDS011;53468;48.276;14.416;2022-09-09T00:42:40;5.10;;;2.40;;
66609;SDS011;53468;48.276;14.416;2022-09-09T00:48:13;5.50;;;2.90;;
66609;SDS011;53468;48.276;14.416;2022-09-09T00:53:56;7.75;;;2.63;;
66609;SDS011;53468;48.276;14.416;2022-09-09T00:59:42;5.40;;;2.53;;
66609;SDS011;53468;48.276;14.416;2022-09-09T01:05:20;11.57;;;2.97;;
66609;SDS011;53468;48.276;14.416;2022-09-09T01:10:58;9.60;;;2.72;;
66609;SDS011;53468;48.276;14.416;2022-09-09T01:16:33;4.93;;;2.60;;
66609;SDS011;53468;48.276;14.416;2022-09-09T01:22:08;4.65;;;2.50;;
66609;SDS011;53468;48.276;14.416;2022-09-09T01:27:46;6.75;;;2.60;;
66609;SDS011;53468;48.276;14.416;2022-09-09T01:33:21;4.93;;;2.45;;
66609;SDS011;53468;48.276;14.416;2022-09-09T01:38:53;4.32;;;2.50;;
66609;SDS011;53468;48.276;14.416;2022-09-09T01:44:27;4.70;;;2.50;;
66609;SDS011;53468;48.276;14.416;2022-09-09T01:50:01;4.13;;;2.25;;
66609;SDS011;53468;48.276;14.416;2022-09-09T01:55:36;5.28;;;2.63;;
66609;SDS011;53468;48.276;14.416;2022-09-09T02:01:12;4.63;;;2.17;;
66609;SDS011;53468;48.276;14.416;2022-09-09T02:06:55;5.53;;;2.70;;
66609;SDS011;53468;48.276;14.416;2022-09-09T02:12:28;8.85;;;2.83;;
66609;SDS011;53468;48.276;14.416;2022-09-09T02:18:04;6.30;;;2.40;;
66609;SDS011;53468;48.276;14.416;2022-09-09T02:23:39;6.38;;;2.55;;
66609;SDS011;53468;48.276;14.416;2022-09-09T02:29:17;6.90;;;2.40;;
66609;SDS011;53468;48.276;14.416;2022-09-09T02:34:57;6.35;;;2.20;;
66609;SDS011;53468;48.276;14.416;2022-09-09T02:40:33;6.30;;;2.50;;
66609;SDS011;53468;48.276;14.416;2022-09-09T02:46:08;8.85;;;3.33;;
66609;SDS011;53468;48.276;14.416;2022-09-09T02:51:56;3.92;;;2.13;;
66609;SDS011;53468;48.276;14.416;2022-09-09T02:57:32;5.57;;;2.90;;
66609;SDS011;53468;48.276;14.416;2022-09-09T03:03:05;9.98;;;2.38;;
66609;SDS011;53468;48.276;14.416;2022-09-09T03:08:40;3.85;;;1.83;;
66609;SDS011;53468;48.276;14.416;2022-09-09T03:14:13;5.78;;;2.05;;
66609;SDS011;53468;48.276;14.416;2022-09-09T03:19:45;5.53;;;2.30;;
66609;SDS011;53468;48.276;14.416;2022-09-09T03:25:21;3.95;;;2.40;;
66609;SDS011;53468;48.276;14.416;2022-09-09T03:30:57;4.45;;;2.47;;
66609;SDS011;53468;48.276;14.416;2022-09-09T03:36:30;8.38;;;3.17;;
66609;SDS011;53468;48.276;14.416;2022-09-09T03:42:06;4.18;;;2.40;;
66609;SDS011;53468;48.276;14.416;2022-09-09T03:47:38;6.65;;;3.70;;
66609;SDS011;53468;48.276;14.416;2022-09-09T03:53:11;4.22;;;2.67;;
66609;SDS011;53468;48.276;14.416;2022-09-09T03:58:45;5.47;;;3.20;;
66609;SDS011;53468;48.276;14.416;2022-09-09T04:04:17;4.35;;;2.60;;
66609;SDS011;53468;48.276;14.416;2022-09-09T04:09:50;4.88;;;2.67;;
66609;SDS011;53468;48.276;14.416;2022-09-09T04:15:23;3.70;;;2.47;;
66609;SDS011;53468;48.276;14.416;2022-09-09T04:20:56;5.93;;;2.58;;
66609;SDS011;53468;48.276;14.416;2022-09-09T04:26:28;4.95;;;2.60;;
66609;SDS011;53468;48.276;14.416;2022-09-09T04:32:02;4.78;;;2.65;;
66609;SDS011;53468;48.276;14.416;2022-09-09T04:44:02;5.38;;;2.60;;
66609;SDS011;53468;48.276;14.416;2022-09-09T04:49:36;6.28;;;2.58;;
66609;SDS011;53468;48.276;14.416;2022-09-09T04:55:08;6.10;;;2.38;;
66609;SDS011;53468;48.276;14.416;2022-09-09T05:00:40;6.97;;;2.53;;
66609;SDS011;53468;48.276;14.416;2022-09-09T05:06:16;7.57;;;3.10;;
66609;SDS011;53468;48.276;14.416;2022-09-09T05:11:50;6.30;;;2.97;;
66609;SDS011;53468;48.276;14.416;2022-09-09T05:17:23;5.20;;;3.08;;
66609;SDS011;53468;48.276;14.416;2022-09-09T05:22:56;7.10;;;2.47;;
66609;SDS011;53468;48.276;14.416;2022-09-09T05:28:28;5.25;;;2.47;;
66609;SDS011;53468;48.276;14.416;2022-09-09T05:34:01;4.95;;;2.55;;
66609;SDS011;53468;48.276;14.416;2022-09-09T05:39:35;3.80;;;2.13;;
66609;SDS011;53468;48.276;14.416;2022-09-09T05:45:08;3.60;;;2.10;;
66609;SDS011;53468;48.276;14.416;2022-09-09T05:50:40;4.57;;;2.50;;
66609;SDS011;53468;48.276;14.416;2022-09-09T05:56:15;3.97;;;2.13;;
66609;SDS011;53468;48.276;14.416;2022-09-09T06:01:49;4.68;;;2.30;;
66609;SDS011;53468;48.276;14.416;2022-09-09T06:07:21;4.78;;;2.60;;
66609;SDS011;53468;48.276;14.416;2022-09-09T06:12:54;4.85;;;2.55;;
66609;SDS011;53468;48.276;14.416;2022-09-09T06:18:27;3.83;;;2.00;;
66609;SDS011;53468;48.276;14.416;2022-09-09T06:23:59;3.40;;;1.98;;
66609;SDS011;53468;48.276;14.416;2022-09-09T06:29:33;2.70;;;1.60;;
66609;SDS011;53468;48.276;14.416;2022-09-09T06:35:06;6.28;;;2.22;;
66609;SDS011;53468;48.276;14.416;2022-09-09T06:40:38;5.80;;;1.48;;
66609;SDS011;53468;48.276;14.416;2022-09-09T06:46:12;3.33;;;1.75;;
66609;SDS011;53468;48.276;14.416;2022-09-09T06:51:46;9.10;;;2.35;;
66609;SDS011;53468;48.276;14.416;2022-09-09T06:57:20;2.38;;;1.40;;
66609;SDS011;53468;48.276;14.416;2022-09-09T07:02:53;2.10;;;1.38;;
66609;SDS011;53468;48.276;14.416;2022-09-09T07:08:25;3.80;;;1.50;;
66609;SDS011;53468;48.276;14.416;2022-09-09T07:13:58;3.47;;;1.70;;
66609;SDS011;53468;48.276;14.416;2022-09-09T07:19:33;4.43;;;2.47;;
66609;SDS011;53468;48.276;14.416;2022-09-09T07:25:05;3.38;;;2.00;;
66609;SDS011;53468;48.276;14.416;2022-09-09T07:30:38;4.32;;;1.98;;
66609;SDS011;53468;48.276;14.416;2022-09-09T07:36:14;3.15;;;1.88;;
66609;SDS011;53468;48.276;14.416;2022-09-09T07:41:48;4.85;;;1.98;;
66609;SDS011;53468;48.276;14.416;2022-09-09T07:47:21;8.05;;;1.75;;
66609;SDS011;53468;48.276;14.416;2022-09-09T07:52:56;3.38;;;1.55;;
66609;SDS011;53468;48.276;14.416;2022-09-09T07:58:29;2.28;;;1.63;;
66609;SDS011;53468;48.276;14.416;2022-09-09T08:04:03;6.53;;;1.70;;
66609;SDS011;53468;48.276;14.416;2022-09-09T08:09:38;5.00;;;1.65;;
66609;SDS011;53468;48.276;14.416;2022-09-09T08:15:11;3.03;;;2.17;;
66609;SDS011;53468;48.276;14.416;2022-09-09T08:20:43;5.22;;;1.90;;
66609;SDS011;53468;48.276;14.416;2022-09-09T08:26:17;4.15;;;2.30;;
66609;SDS011;53468;48.276;14.416;2022-09-09T08:31:53;2.80;;;1.50;;
66609;SDS011;53468;48.276;14.416;2022-09-09T08:37:27;4.13;;;1.65;;
66609;SDS011;53468;48.276;14.416;2022-09-09T08:43:00;2.03;;;1.55;;
66609;SDS011;53468;48.276;14.416;2022-09-09T08:48:40;2.80;;;1.52;;
66609;SDS011;53468;48.276;14.416;2022-09-09T08:54:20;4.38;;;1.63;;
66609;SDS011;53468;48.276;14.416;2022-09-09T08:59:55;4.13;;;2.58;;
66609;SDS011;53468;48.276;14.416;2022-09-09T09:05:30;12.13;;;4.07;;
66609;SDS011;53468;48.276;14.416;2022-09-09T09:11:07;5.53;;;3.83;;
66609;SDS011;53468;48.276;14.416;2022-09-09T09:16:43;7.70;;;4.00;;
66609;SDS011;53468;48.276;14.416;2022-09-09T09:27:57;8.15;;;4.35;;
66609;SDS011;53468;48.276;14.416;2022-09-09T09:33:34;5.38;;;3.58;;
66609;SDS011;53468;48.276;14.416;2022-09-09T09:39:21;5.93;;;3.10;;
66609;SDS011;53468;48.276;14.416;2022-09-09T09:44:54;8.45;;;3.50;;
66609;SDS011;53468;48.276;14.416;2022-09-09T09:50:28;11.13;;;3.90;;
66609;SDS011;53468;48.276;14.416;2022-09-09T09:56:02;5.93;;;3.85;;
66609;SDS011;53468;48.276;14.416;2022-09-09T10:01:36;7.63;;;4.47;;
66609;SDS011;53468;48.276;14.416;2022-09-09T10:07:17;7.18;;;4.10;;
66609;SDS011;53468;48.276;14.416;2022-09-09T10:12:54;12.13;;;6.05;;
66609;SDS011;53468;48.276;14.416;2022-09-09T10:24:22;10.45;;;6.05;;
66609;SDS011;53468;48.276;14.416;2022-09-09T10:30:14;8.82;;;5.38;;
66609;SDS011;53468;48.276;14.416;2022-09-09T10:35:50;14.38;;;6.20;;
66609;SDS011;53468;48.276;14.416;2022-09-09T10:41:38;13.60;;;5.35;;
66609;SDS011;53468;48.276;14.416;2022-09-09T10:47:20;10.15;;;6.32;;
66609;SDS011;53468;48.276;14.416;2022-09-09T10:53:07;9.50;;;5.35;;
66609;SDS011;53468;48.276;14.416;2022-09-09T10:58:49;10.13;;;5.30;;
66609;SDS011;53468;48.276;14.416;2022-09-09T11:04:25;13.90;;;5.10;;
66609;SDS011;53468;48.276;14.416;2022-09-09T11:10:03;8.75;;;4.15;;
66609;SDS011;53468;48.276;14.416;2022-09-09T11:15:49;5.32;;;3.47;;
66609;SDS011;53468;48.276;14.416;2022-09-09T11:21:24;5.75;;;4.30;;
66609;SDS011;53468;48.276;14.416;2022-09-09T11:27:02;7.20;;;4.00;;
66609;SDS011;53468;48.276;14.416;2022-09-09T11:39:06;9.73;;;4.00;;
66609;SDS011;53468;48.276;14.416;2022-09-09T11:44:48;9.57;;;5.63;;
66609;SDS011;53468;48.276;14.416;2022-09-09T11:50:28;12.88;;;6.55;;
66609;SDS011;53468;48.276;14.416;2022-09-09T11:56:05;14.70;;;7.05;;
66609;SDS011;53468;48.276;14.416;2022-09-09T12:01:40;13.48;;;6.47;;
66609;SDS011;53468;48.276;14.416;2022-09-09T12:13:16;14.20;;;7.93;;
66609;SDS011;53468;48.276;14.416;2022-09-09T12:18:50;11.85;;;7.28;;
66609;SDS011;53468;48.276;14.416;2022-09-09T12:24:24;10.63;;;7.80;;
66609;SDS011;53468;48.276;14.416;2022-09-09T12:30:08;11.27;;;6.25;;
66609;SDS011;53468;48.276;14.416;2022-09-09T12:35:43;15.05;;;6.45;;
66609;SDS011;53468;48.276;14.416;2022-09-09T12:41:19;8.55;;;6.63;;
66609;SDS011;53468;48.276;14.416;2022-09-09T12:46:55;12.60;;;8.25;;
66609;SDS011;53468;48.276;14.416;2022-09-09T12:52:31;11.05;;;7.68;;
66609;SDS011;53468;48.276;14.416;2022-09-09T12:58:05;11.00;;;6.75;;
66609;SDS011;53468;48.276;14.416;2022-09-09T13:03:42;8.98;;;6.80;;
66609;SDS011;53468;48.276;14.416;2022-09-09T13:09:17;7.68;;;5.63;;
66609;SDS011;53468;48.276;14.416;2022-09-09T13:14:50;8.55;;;5.10;;
66609;SDS011;53468;48.276;14.416;2022-09-09T13:20:26;8.07;;;4.60;;
66609;SDS011;53468;48.276;14.416;2022-09-09T13:25:59;7.20;;;5.07;;
66609;SDS011;53468;48.276;14.416;2022-09-09T13:31:36;8.80;;;5.88;;
66609;SDS011;53468;48.276;14.416;2022-09-09T13:37:16;8.45;;;6.40;;
66609;SDS011;53468;48.276;14.416;2022-09-09T13:42:55;6.85;;;4.80;;
66609;SDS011;53468;48.276;14.416;2022-09-09T13:48:28;5.93;;;4.78;;
66609;SDS011;53468;48.276;14.416;2022-09-09T13:54:03;7.30;;;4.68;;
66609;SDS011;53468;48.276;14.416;2022-09-09T13:59:36;10.27;;;5.03;;
66609;SDS011;53468;48.276;14.416;2022-09-09T14:05:08;6.38;;;3.97;;
66609;SDS011;53468;48.276;14.416;2022-09-09T14:10:42;8.43;;;4.32;;
66609;SDS011;53468;48.276;14.416;2022-09-09T14:16:15;4.60;;;3.55;;
66609;SDS011;53468;48.276;14.416;2022-09-09T14:21:48;6.95;;;4.20;;
66609;SDS011;53468;48.276;14.416;2022-09-09T14:27:21;5.32;;;3.20;;
66609;SDS011;53468;48.276;14.416;2022-09-09T14:32:56;5.30;;;3.17;;
66609;SDS011;53468;48.276;14.416;2022-09-09T14:38:28;4.82;;;3.03;;
66609;SDS011;53468;48.276;14.416;2022-09-09T14:44:02;5.60;;;2.90;;
66609;SDS011;53468;48.276;14.416;2022-09-09T14:49:34;7.25;;;3.10;;
66609;SDS011;53468;48.276;14.416;2022-09-09T14:55:07;7.53;;;3.22;;
66609;SDS011;53468;48.276;14.416;2022-09-09T15:00:41;11.48;;;4.30;;
66609;SDS011;53468;48.276;14.416;2022-09-09T15:06:13;9.27;;;4.53;;
66609;SDS011;53468;48.276;14.416;2022-09-09T15:11:46;7.15;;;4.30;;
66609;SDS011;53468;48.276;14.416;2022-09-09T15:17:19;6.65;;;4.00;;
66609;SDS011;53468;48.276;14.416;2022-09-09T15:22:51;9.80;;;4.00;;
66609;SDS011;53468;48.276;14.416;2022-09-09T15:28:23;9.07;;;4.28;;
66609;SDS011;53468;48.276;14.416;2022-09-09T15:33:58;7.95;;;3.78;;
66609;SDS011;53468;48.276;14.416;2022-09-09T15:39:31;6.45;;;3.63;;
66609;SDS011;53468;48.276;14.416;2022-09-09T15:45:04;8.15;;;3.63;;
66609;SDS011;53468;48.276;14.416;2022-09-09T15:50:38;6.90;;;3.85;;
66609;SDS011;53468;48.276;14.416;2022-09-09T15:56:10;7.90;;;3.78;;
66609;SDS011;53468;48.276;14.416;2022-09-09T16:01:42;6.57;;;4.20;;
66609;SDS011;53468;48.276;14.416;2022-09-09T16:07:15;10.32;;;3.95;;
66609;SDS011;53468;48.276;14.416;2022-09-09T16:12:47;5.88;;;4.03;;
66609;SDS011;53468;48.276;14.416;2022-09-09T16:18:20;7.95;;;3.50;;
66609;SDS011;53468;48.276;14.416;2022-09-09T16:23:55;6.45;;;3.85;;
66609;SDS011;53468;48.276;14.416;2022-09-09T16:29:29;8.48;;;3.03;;
66609;SDS011;53468;48.276;14.416;2022-09-09T16:35:02;5.15;;;3.05;;
66609;SDS011;53468;48.276;14.416;2022-09-09T16:40:36;7.10;;;3.80;;
66609;SDS011;53468;48.276;14.416;2022-09-09T16:46:12;7.55;;;3.80;;
66609;SDS011;53468;48.276;14.416;2022-09-09T16:51:47;4.88;;;3.45;;
66609;SDS011;53468;48.276;14.416;2022-09-09T16:57:24;6.32;;;3.33;;
66609;SDS011;53468;48.276;14.416;2022-09-09T17:02:58;6.28;;;3.42;;
66609;SDS011;53468;48.276;14.416;2022-09-09T17:08:30;6.57;;;3.70;;
66609;SDS011;53468;48.276;14.416;2022-09-09T17:14:05;5.50;;;3.55;;
66609;SDS011;53468;48.276;14.416;2022-09-09T17:19:39;7.07;;;3.90;;
66609;SDS011;53468;48.276;14.416;2022-09-09T17:25:11;8.32;;;4.10;;
66609;SDS011;53468;48.276;14.416;2022-09-09T17:30:44;7.07;;;3.92;;
66609;SDS011;53468;48.276;14.416;2022-09-09T17:36:18;6.25;;;3.80;;
66609;SDS011;53468;48.276;14.416;2022-09-09T17:41:52;6.78;;;4.40;;
66609;SDS011;53468;48.276;14.416;2022-09-09T17:47:26;8.05;;;4.95;;
66609;SDS011;53468;48.276;14.416;2022-09-09T17:53:00;8.02;;;4.45;;
66609;SDS011;53468;48.276;14.416;2022-09-09T17:58:33;6.43;;;4.75;;
66609;SDS011;53468;48.276;14.416;2022-09-09T18:04:08;8.27;;;4.40;;
66609;SDS011;53468;48.276;14.416;2022-09-09T18:09:43;7.32;;;4.07;;
66609;SDS011;53468;48.276;14.416;2022-09-09T18:15:16;9.57;;;4.10;;
66609;SDS011;53468;48.276;14.416;2022-09-09T18:20:57;8.07;;;4.22;;
66609;SDS011;53468;48.276;14.416;2022-09-09T18:26:30;6.30;;;4.53;;
66609;SDS011;53468;48.276;14.416;2022-09-09T18:32:03;8.02;;;4.97;;
66609;SDS011;53468;48.276;14.416;2022-09-09T18:37:37;10.60;;;4.93;;
66609;SDS011;53468;48.276;14.416;2022-09-09T18:43:09;8.02;;;5.53;;
66609;SDS011;53468;48.276;14.416;2022-09-09T18:48:42;8.90;;;5.35;;
66609;SDS011;53468;48.276;14.416;2022-09-09T18:54:18;9.43;;;6.72;;
66609;SDS011;53468;48.276;14.416;2022-09-09T18:59:52;11.20;;;6.30;;
66609;SDS011;53468;48.276;14.416;2022-09-09T19:05:24;11.18;;;6.75;;
66609;SDS011;53468;48.276;14.416;2022-09-09T19:11:01;9.95;;;6.07;;
66609;SDS011;53468;48.276;14.416;2022-09-09T19:16:34;10.38;;;5.30;;
66609;SDS011;53468;48.276;14.416;2022-09-09T19:22:06;10.70;;;6.50;;
66609;SDS011;53468;48.276;14.416;2022-09-09T19:27:42;12.35;;;6.43;;
66609;SDS011;53468;48.276;14.416;2022-09-09T19:33:14;10.93;;;6.20;;
66609;SDS011;53468;48.276;14.416;2022-09-09T19:38:46;10.63;;;5.97;;
66609;SDS011;53468;48.276;14.416;2022-09-09T19:44:22;9.93;;;5.80;;
66609;SDS011;53468;48.276;14.416;2022-09-09T19:49:54;12.60;;;6.03;;
66609;SDS011;53468;48.276;14.416;2022-09-09T19:55:26;10.38;;;6.28;;
66609;SDS011;53468;48.276;14.416;2022-09-09T20:01:05;16.85;;;7.07;;
66609;SDS011;53468;48.276;14.416;2022-09-09T20:06:38;9.82;;;6.35;;
66609;SDS011;53468;48.276;14.416;2022-09-09T20:12:13;11.32;;;6.32;;
66609;SDS011;53468;48.276;14.416;2022-09-09T20:17:47;10.98;;;6.43;;
66609;SDS011;53468;48.276;14.416;2022-09-09T20:23:19;10.35;;;6.15;;
66609;SDS011;53468;48.276;14.416;2022-09-09T20:28:52;9.85;;;6.03;;
66609;SDS011;53468;48.276;14.416;2022-09-09T20:34:26;10.13;;;6.63;;
66609;SDS011;53468;48.276;14.416;2022-09-09T20:39:59;11.57;;;7.00;;
66609;SDS011;53468;48.276;14.416;2022-09-09T20:45:34;14.82;;;8.55;;
66609;SDS011;53468;48.276;14.416;2022-09-09T20:51:08;16.65;;;9.70;;
66609;SDS011;53468;48.276;14.416;2022-09-09T20:56:43;15.48;;;8.30;;
66609;SDS011;53468;48.276;14.416;2022-09-09T21:02:16;11.50;;;7.35;;
66609;SDS011;53468;48.276;14.416;2022-09-09T21:07:50;12.00;;;7.82;;
66609;SDS011;53468;48.276;14.416;2022-09-09T21:13:23;13.18;;;8.18;;
66609;SDS011;53468;48.276;14.416;2022-09-09T21:18:55;15.23;;;8.50;;
66609;SDS011;53468;48.276;14.416;2022-09-09T21:24:30;14.48;;;8.23;;
66609;SDS011;53468;48.276;14.416;2022-09-09T21:30:02;14.70;;;9.02;;
66609;SDS011;53468;48.276;14.416;2022-09-09T21:35:35;12.30;;;8.48;;
66609;SDS011;53468;48.276;14.416;2022-09-09T21:41:11;16.08;;;9.25;;
66609;SDS011;53468;48.276;14.416;2022-09-09T21:46:44;13.05;;;8.30;;
66609;SDS011;53468;48.276;14.416;2022-09-09T21:52:17;19.10;;;9.20;;
66609;SDS011;53468;48.276;14.416;2022-09-09T21:57:50;13.52;;;8.05;;
66609;SDS011;53468;48.276;14.416;2022-09-09T22:03:24;16.23;;;9.23;;
66609;SDS011;53468;48.276;14.416;2022-09-09T22:08:56;12.82;;;8.15;;
66609;SDS011;53468;48.276;14.416;2022-09-09T22:14:32;13.32;;;8.75;;
66609;SDS011;53468;48.276;14.416;2022-09-09T22:20:06;13.70;;;8.30;;
66609;SDS011;53468;48.276;14.416;2022-09-09T22:25:39;17.13;;;8.48;;
66609;SDS011;53468;48.276;14.416;2022-09-09T22:31:13;19.10;;;9.55;;
66609;SDS011;53468;48.276;14.416;2022-09-09T22:36:45;16.60;;;9.60;;
66609;SDS011;53468;48.276;14.416;2022-09-09T22:42:19;16.27;;;10.27;;
66609;SDS011;53468;48.276;14.416;2022-09-09T22:47:53;14.43;;;10.25;;
66609;SDS011;53468;48.276;14.416;2022-09-09T22:53:26;16.60;;;10.35;;
66609;SDS011;53468;48.276;14.416;2022-09-09T22:58:59;17.50;;;10.05;;
66609;SDS011;53468;48.276;14.416;2022-09-09T23:04:33;16.38;;;10.75;;
66609;SDS011;53468;48.276;14.416;2022-09-09T23:10:06;17.35;;;11.10;;
66609;SDS011;53468;48.276;14.416;2022-09-09T23:15:40;23.38;;;11.38;;
66609;SDS011;53468;48.276;14.416;2022-09-09T23:21:17;19.63;;;11.05;;
66609;SDS011;53468;48.276;14.416;2022-09-09T23:26:49;20.02;;;12.30;;
66609;SDS011;53468;48.276;14.416;2022-09-09T23:32:22;49.45;;;14.00;;
66609;SDS011;53468;48.276;14.416;2022-09-09T23:37:55;58.60;;;15.90;;
66609;SDS011;53468;48.276;14.416;2022-09-09T23:43:29;21.20;;;12.52;;
66609;SDS011;53468;48.276;14.416;2022-09-09T23:49:04;21.10;;;11.40;;
66609;SDS011;53468;48.276;14.416;2022-09-09T23:54:38;17.35;;;10.75;;
